EDDT

Berlin-Tegel International Airport

Berlin, Germany
METAR EDDT 200050Z VRB01KT CAVOK 18/12 Q1016
Observed Flight Rules
Sep-20 @ 00:50 UTC (40 minutes ago) Visual Flight Rules
Wind Visibility Clouds
Variable at 1 knots 10,000+ meters
  • Clear skies
Temperatures Readings
Current 18°C / 64°F
Dewpoint 12°C / 54°F
Humidity 68%
Altimeter 30" Hg
Pressure 1016 hPa
Elevation 37
METAR EDDT 200050Z VRB01KT CAVOK 18/12 Q1016
Observed Flight Rules
Sep-20 @ 00:50 UTC
(40 minutes ago)
VFR
Wind Visibility
Variable at 1 knots 10,000+ meters
Clouds
  • Clear skies
Temperature Dewpoint
18°C / 64°F 12°C / 54°F
Humidity Altimeter Pressure
68% 30" Hg 1016 hPa